sensor_id;sensor_type;location;lat;lon;timestamp;temperature;humidity
66019;HTU21D;52787;51.084;5.816;2023-04-23T00:01:06;12.91;79.74
66019;HTU21D;52787;51.084;5.816;2023-04-23T00:03:35;12.95;79.49
66019;HTU21D;52787;51.084;5.816;2023-04-23T00:06:05;12.96;79.46
66019;HTU21D;52787;51.084;5.816;2023-04-23T00:08:41;12.97;79.32
66019;HTU21D;52787;51.084;5.816;2023-04-23T00:11:08;12.96;79.24
66019;HTU21D;52787;51.084;5.816;2023-04-23T00:13:35;12.95;79.21
66019;HTU21D;52787;51.084;5.816;2023-04-23T00:16:01;12.93;79.25
66019;HTU21D;52787;51.084;5.816;2023-04-23T00:18:27;12.86;79.16
66019;HTU21D;52787;51.084;5.816;2023-04-23T00:20:54;12.78;79.48
66019;HTU21D;52787;51.084;5.816;2023-04-23T00:23:20;12.75;79.56
66019;HTU21D;52787;51.084;5.816;2023-04-23T00:25:46;12.72;79.77
66019;HTU21D;52787;51.084;5.816;2023-04-23T00:28:11;12.67;79.70
66019;HTU21D;52787;51.084;5.816;2023-04-23T00:30:37;12.67;79.66
66019;HTU21D;52787;51.084;5.816;2023-04-23T00:33:03;12.66;79.78
66019;HTU21D;52787;51.084;5.816;2023-04-23T00:35:29;12.66;79.66
66019;HTU21D;52787;51.084;5.816;2023-04-23T00:37:55;12.67;79.42
66019;HTU21D;52787;51.084;5.816;2023-04-23T00:40:21;12.64;79.52
66019;HTU21D;52787;51.084;5.816;2023-04-23T00:42:47;12.62;79.56
66019;HTU21D;52787;51.084;5.816;2023-04-23T00:45:16;12.59;79.71
66019;HTU21D;52787;51.084;5.816;2023-04-23T00:47:42;12.57;79.66
66019;HTU21D;52787;51.084;5.816;2023-04-23T00:50:08;12.57;79.56
66019;HTU21D;52787;51.084;5.816;2023-04-23T00:52:34;12.52;79.59
66019;HTU21D;52787;51.084;5.816;2023-04-23T00:55:00;12.48;79.75
66019;HTU21D;52787;51.084;5.816;2023-04-23T00:57:26;12.50;79.67
66019;HTU21D;52787;51.084;5.816;2023-04-23T00:59:53;12.50;79.82
66019;HTU21D;52787;51.084;5.816;2023-04-23T01:02:21;12.52;79.77
66019;HTU21D;52787;51.084;5.816;2023-04-23T01:04:48;12.48;79.86
66019;HTU21D;52787;51.084;5.816;2023-04-23T01:07:20;12.43;80.13
66019;HTU21D;52787;51.084;5.816;2023-04-23T01:09:49;12.40;80.52
66019;HTU21D;52787;51.084;5.816;2023-04-23T01:12:15;12.40;80.61
66019;HTU21D;52787;51.084;5.816;2023-04-23T01:14:43;12.43;80.49
66019;HTU21D;52787;51.084;5.816;2023-04-23T01:17:09;12.46;80.46
66019;HTU21D;52787;51.084;5.816;2023-04-23T01:19:37;12.51;80.43
66019;HTU21D;52787;51.084;5.816;2023-04-23T01:22:13;12.53;80.34
66019;HTU21D;52787;51.084;5.816;2023-04-23T01:24:40;12.53;80.36
66019;HTU21D;52787;51.084;5.816;2023-04-23T01:27:08;12.50;80.46
66019;HTU21D;52787;51.084;5.816;2023-04-23T01:29:34;12.52;80.42
66019;HTU21D;52787;51.084;5.816;2023-04-23T01:32:02;12.52;80.21
66019;HTU21D;52787;51.084;5.816;2023-04-23T01:34:30;12.50;80.17
66019;HTU21D;52787;51.084;5.816;2023-04-23T01:36:57;12.49;80.26
66019;HTU21D;52787;51.084;5.816;2023-04-23T01:39:24;12.47;80.19
66019;HTU21D;52787;51.084;5.816;2023-04-23T01:41:51;12.45;80.37
66019;HTU21D;52787;51.084;5.816;2023-04-23T01:44:18;12.41;80.64
66019;HTU21D;52787;51.084;5.816;2023-04-23T01:46:43;12.40;80.72
66019;HTU21D;52787;51.084;5.816;2023-04-23T01:49:10;12.40;80.62
66019;HTU21D;52787;51.084;5.816;2023-04-23T01:51:36;12.38;80.65
66019;HTU21D;52787;51.084;5.816;2023-04-23T01:54:02;12.38;80.67
66019;HTU21D;52787;51.084;5.816;2023-04-23T01:56:27;12.41;80.54
66019;HTU21D;52787;51.084;5.816;2023-04-23T01:58:55;12.38;80.39
66019;HTU21D;52787;51.084;5.816;2023-04-23T02:01:21;12.35;80.56
66019;HTU21D;52787;51.084;5.816;2023-04-23T02:03:49;12.35;80.71
66019;HTU21D;52787;51.084;5.816;2023-04-23T02:06:15;12.33;80.68
66019;HTU21D;52787;51.084;5.816;2023-04-23T02:08:41;12.33;80.75
66019;HTU21D;52787;51.084;5.816;2023-04-23T02:11:07;12.33;80.76
66019;HTU21D;52787;51.084;5.816;2023-04-23T02:13:33;12.35;80.71
66019;HTU21D;52787;51.084;5.816;2023-04-23T02:15:59;12.33;80.59
66019;HTU21D;52787;51.084;5.816;2023-04-23T02:18:24;12.32;80.70
66019;HTU21D;52787;51.084;5.816;2023-04-23T02:20:51;12.31;80.78
66019;HTU21D;52787;51.084;5.816;2023-04-23T02:23:16;12.35;80.74
66019;HTU21D;52787;51.084;5.816;2023-04-23T02:25:42;12.35;80.62
66019;HTU21D;52787;51.084;5.816;2023-04-23T02:28:08;12.36;80.56
66019;HTU21D;52787;51.084;5.816;2023-04-23T02:30:38;12.38;80.52
66019;HTU21D;52787;51.084;5.816;2023-04-23T02:33:12;12.36;80.64
66019;HTU21D;52787;51.084;5.816;2023-04-23T02:35:38;12.40;80.54
66019;HTU21D;52787;51.084;5.816;2023-04-23T02:38:04;12.42;80.44
66019;HTU21D;52787;51.084;5.816;2023-04-23T02:40:29;12.43;80.29
66019;HTU21D;52787;51.084;5.816;2023-04-23T02:42:55;12.43;80.27
66019;HTU21D;52787;51.084;5.816;2023-04-23T02:45:21;12.43;80.16
66019;HTU21D;52787;51.084;5.816;2023-04-23T02:47:47;12.43;80.11
66019;HTU21D;52787;51.084;5.816;2023-04-23T02:50:13;12.43;80.17
66019;HTU21D;52787;51.084;5.816;2023-04-23T02:52:38;12.44;80.35
66019;HTU21D;52787;51.084;5.816;2023-04-23T02:55:05;12.45;80.17
66019;HTU21D;52787;51.084;5.816;2023-04-23T02:57:32;12.44;80.20
66019;HTU21D;52787;51.084;5.816;2023-04-23T02:59:57;12.46;80.17
66019;HTU21D;52787;51.084;5.816;2023-04-23T03:02:23;12.43;80.27
66019;HTU21D;52787;51.084;5.816;2023-04-23T03:04:49;12.42;80.38
66019;HTU21D;52787;51.084;5.816;2023-04-23T03:07:15;12.44;80.48
66019;HTU21D;52787;51.084;5.816;2023-04-23T03:09:42;12.44;80.52
66019;HTU21D;52787;51.084;5.816;2023-04-23T03:12:08;12.45;80.38
66019;HTU21D;52787;51.084;5.816;2023-04-23T03:14:34;12.43;80.53
66019;HTU21D;52787;51.084;5.816;2023-04-23T03:17:00;12.45;80.53
66019;HTU21D;52787;51.084;5.816;2023-04-23T03:19:26;12.44;80.59
66019;HTU21D;52787;51.084;5.816;2023-04-23T03:21:51;12.46;80.80
66019;HTU21D;52787;51.084;5.816;2023-04-23T03:24:17;12.46;80.78
66019;HTU21D;52787;51.084;5.816;2023-04-23T03:26:43;12.45;80.94
66019;HTU21D;52787;51.084;5.816;2023-04-23T03:29:09;12.46;81.02
66019;HTU21D;52787;51.084;5.816;2023-04-23T03:31:35;12.45;81.15
66019;HTU21D;52787;51.084;5.816;2023-04-23T03:34:01;12.48;81.26
66019;HTU21D;52787;51.084;5.816;2023-04-23T03:36:27;12.51;81.09
66019;HTU21D;52787;51.084;5.816;2023-04-23T03:38:53;12.55;80.87
66019;HTU21D;52787;51.084;5.816;2023-04-23T03:41:19;12.55;80.70
66019;HTU21D;52787;51.084;5.816;2023-04-23T03:43:44;12.55;80.69
66019;HTU21D;52787;51.084;5.816;2023-04-23T03:46:10;12.53;80.75
66019;HTU21D;52787;51.084;5.816;2023-04-23T03:48:36;12.58;80.73
66019;HTU21D;52787;51.084;5.816;2023-04-23T03:51:02;12.58;80.74
66019;HTU21D;52787;51.084;5.816;2023-04-23T03:53:27;12.58;80.98
66019;HTU21D;52787;51.084;5.816;2023-04-23T03:55:53;12.60;81.15
66019;HTU21D;52787;51.084;5.816;2023-04-23T03:58:19;12.62;81.16
66019;HTU21D;52787;51.084;5.816;2023-04-23T04:00:45;12.63;81.20
66019;HTU21D;52787;51.084;5.816;2023-04-23T04:03:11;12.65;81.38
66019;HTU21D;52787;51.084;5.816;2023-04-23T04:05:37;12.64;81.55
66019;HTU21D;52787;51.084;5.816;2023-04-23T04:08:02;12.64;81.68
66019;HTU21D;52787;51.084;5.816;2023-04-23T04:10:29;12.64;82.01
66019;HTU21D;52787;51.084;5.816;2023-04-23T04:12:55;12.65;82.09
66019;HTU21D;52787;51.084;5.816;2023-04-23T04:15:21;12.69;82.16
66019;HTU21D;52787;51.084;5.816;2023-04-23T04:17:47;12.71;82.13
66019;HTU21D;52787;51.084;5.816;2023-04-23T04:20:12;12.73;82.04
66019;HTU21D;52787;51.084;5.816;2023-04-23T04:22:38;12.74;82.12
66019;HTU21D;52787;51.084;5.816;2023-04-23T04:25:05;12.76;82.18
66019;HTU21D;52787;51.084;5.816;2023-04-23T04:27:31;12.76;82.17
66019;HTU21D;52787;51.084;5.816;2023-04-23T04:30:00;12.77;82.22
66019;HTU21D;52787;51.084;5.816;2023-04-23T04:32:26;12.82;82.17
66019;HTU21D;52787;51.084;5.816;2023-04-23T04:34:52;12.82;82.23
66019;HTU21D;52787;51.084;5.816;2023-04-23T04:37:19;12.85;82.14
66019;HTU21D;52787;51.084;5.816;2023-04-23T04:39:47;12.87;82.01
66019;HTU21D;52787;51.084;5.816;2023-04-23T04:42:14;12.91;82.10
66019;HTU21D;52787;51.084;5.816;2023-04-23T04:44:40;12.94;82.02
66019;HTU21D;52787;51.084;5.816;2023-04-23T04:47:08;12.97;81.89
66019;HTU21D;52787;51.084;5.816;2023-04-23T04:49:34;12.96;81.88
66019;HTU21D;52787;51.084;5.816;2023-04-23T04:52:00;12.97;81.86
66019;HTU21D;52787;51.084;5.816;2023-04-23T04:54:26;12.97;81.74
66019;HTU21D;52787;51.084;5.816;2023-04-23T04:56:52;12.95;81.83
66019;HTU21D;52787;51.084;5.816;2023-04-23T04:59:18;12.99;81.95
66019;HTU21D;52787;51.084;5.816;2023-04-23T05:01:44;13.01;82.00
66019;HTU21D;52787;51.084;5.816;2023-04-23T05:04:10;13.03;82.05
66019;HTU21D;52787;51.084;5.816;2023-04-23T05:06:35;13.07;81.75
66019;HTU21D;52787;51.084;5.816;2023-04-23T05:09:01;13.09;81.68
66019;HTU21D;52787;51.084;5.816;2023-04-23T05:11:27;13.10;81.52
66019;HTU21D;52787;51.084;5.816;2023-04-23T05:13:53;13.11;81.74
66019;HTU21D;52787;51.084;5.816;2023-04-23T05:16:18;13.12;81.55
66019;HTU21D;52787;51.084;5.816;2023-04-23T05:18:44;13.16;81.60
66019;HTU21D;52787;51.084;5.816;2023-04-23T05:21:11;13.19;81.53
66019;HTU21D;52787;51.084;5.816;2023-04-23T05:23:36;13.21;81.43
66019;HTU21D;52787;51.084;5.816;2023-04-23T05:26:03;13.23;81.52
66019;HTU21D;52787;51.084;5.816;2023-04-23T05:28:29;13.25;81.49
66019;HTU21D;52787;51.084;5.816;2023-04-23T05:33:30;13.31;81.29
66019;HTU21D;52787;51.084;5.816;2023-04-23T05:35:56;13.33;81.17
66019;HTU21D;52787;51.084;5.816;2023-04-23T05:38:22;13.33;81.17
66019;HTU21D;52787;51.084;5.816;2023-04-23T05:40:48;13.35;81.27
66019;HTU21D;52787;51.084;5.816;2023-04-23T05:43:14;13.32;81.24
66019;HTU21D;52787;51.084;5.816;2023-04-23T05:45:40;13.30;81.39
66019;HTU21D;52787;51.084;5.816;2023-04-23T05:48:05;13.31;81.36
66019;HTU21D;52787;51.084;5.816;2023-04-23T05:50:31;13.35;81.42
66019;HTU21D;52787;51.084;5.816;2023-04-23T05:52:57;13.36;81.23
66019;HTU21D;52787;51.084;5.816;2023-04-23T05:55:23;13.38;81.32
66019;HTU21D;52787;51.084;5.816;2023-04-23T05:57:48;13.40;81.39
66019;HTU21D;52787;51.084;5.816;2023-04-23T06:00:15;13.43;81.23
66019;HTU21D;52787;51.084;5.816;2023-04-23T06:02:41;13.47;81.11
66019;HTU21D;52787;51.084;5.816;2023-04-23T06:05:07;13.52;80.99
66019;HTU21D;52787;51.084;5.816;2023-04-23T06:07:34;13.55;80.69
66019;HTU21D;52787;51.084;5.816;2023-04-23T06:10:01;13.56;80.85
66019;HTU21D;52787;51.084;5.816;2023-04-23T06:12:29;13.58;80.85
66019;HTU21D;52787;51.084;5.816;2023-04-23T06:14:55;13.59;80.95
66019;HTU21D;52787;51.084;5.816;2023-04-23T06:17:21;13.62;81.07
66019;HTU21D;52787;51.084;5.816;2023-04-23T06:19:47;13.64;80.70
66019;HTU21D;52787;51.084;5.816;2023-04-23T06:22:12;13.67;80.75
66019;HTU21D;52787;51.084;5.816;2023-04-23T06:24:38;13.73;80.75
66019;HTU21D;52787;51.084;5.816;2023-04-23T06:27:04;13.76;80.52
66019;HTU21D;52787;51.084;5.816;2023-04-23T06:29:30;13.78;80.34
66019;HTU21D;52787;51.084;5.816;2023-04-23T06:31:59;13.80;80.14
66019;HTU21D;52787;51.084;5.816;2023-04-23T06:34:25;13.80;80.17
66019;HTU21D;52787;51.084;5.816;2023-04-23T06:36:51;13.85;80.30
66019;HTU21D;52787;51.084;5.816;2023-04-23T06:39:17;13.89;80.04
66019;HTU21D;52787;51.084;5.816;2023-04-23T06:41:43;13.92;80.10
66019;HTU21D;52787;51.084;5.816;2023-04-23T06:44:08;13.93;79.83
66019;HTU21D;52787;51.084;5.816;2023-04-23T06:46:35;14.01;79.52
66019;HTU21D;52787;51.084;5.816;2023-04-23T06:49:00;14.07;79.30
66019;HTU21D;52787;51.084;5.816;2023-04-23T06:51:26;14.13;79.26
66019;HTU21D;52787;51.084;5.816;2023-04-23T06:53:52;14.19;79.04
66019;HTU21D;52787;51.084;5.816;2023-04-23T06:56:19;14.25;78.75
66019;HTU21D;52787;51.084;5.816;2023-04-23T06:58:46;14.30;78.58
66019;HTU21D;52787;51.084;5.816;2023-04-23T07:01:12;14.30;78.15
66019;HTU21D;52787;51.084;5.816;2023-04-23T07:03:38;14.32;77.44
66019;HTU21D;52787;51.084;5.816;2023-04-23T07:06:04;14.34;77.03
66019;HTU21D;52787;51.084;5.816;2023-04-23T07:08:30;14.36;77.44
66019;HTU21D;52787;51.084;5.816;2023-04-23T07:10:56;14.43;77.48
66019;HTU21D;52787;51.084;5.816;2023-04-23T07:13:22;14.53;76.93
66019;HTU21D;52787;51.084;5.816;2023-04-23T07:15:49;14.60;77.06
66019;HTU21D;52787;51.084;5.816;2023-04-23T07:18:14;14.64;76.51
66019;HTU21D;52787;51.084;5.816;2023-04-23T07:20:41;14.68;76.11
66019;HTU21D;52787;51.084;5.816;2023-04-23T07:23:06;14.70;76.21
66019;HTU21D;52787;51.084;5.816;2023-04-23T07:25:32;14.79;76.44
66019;HTU21D;52787;51.084;5.816;2023-04-23T07:27:58;14.88;75.89
66019;HTU21D;52787;51.084;5.816;2023-04-23T07:30:25;14.92;75.74
66019;HTU21D;52787;51.084;5.816;2023-04-23T07:32:51;14.98;75.68
66019;HTU21D;52787;51.084;5.816;2023-04-23T07:35:18;15.03;75.58
66019;HTU21D;52787;51.084;5.816;2023-04-23T07:37:43;15.11;75.73
66019;HTU21D;52787;51.084;5.816;2023-04-23T07:40:10;15.18;75.64
66019;HTU21D;52787;51.084;5.816;2023-04-23T07:42:36;15.21;74.45
66019;HTU21D;52787;51.084;5.816;2023-04-23T07:45:01;15.26;74.86
66019;HTU21D;52787;51.084;5.816;2023-04-23T07:47:28;15.33;74.68
66019;HTU21D;52787;51.084;5.816;2023-04-23T07:49:54;15.39;74.24
66019;HTU21D;52787;51.084;5.816;2023-04-23T07:52:20;15.46;73.75
66019;HTU21D;52787;51.084;5.816;2023-04-23T07:54:45;15.49;73.95
66019;HTU21D;52787;51.084;5.816;2023-04-23T07:57:11;15.54;73.50
66019;HTU21D;52787;51.084;5.816;2023-04-23T07:59:37;15.59;73.13
66019;HTU21D;52787;51.084;5.816;2023-04-23T08:02:06;15.70;73.44
66019;HTU21D;52787;51.084;5.816;2023-04-23T08:04:31;15.80;72.84
66019;HTU21D;52787;51.084;5.816;2023-04-23T08:06:57;15.83;71.96
66019;HTU21D;52787;51.084;5.816;2023-04-23T08:09:23;15.89;72.05
66019;HTU21D;52787;51.084;5.816;2023-04-23T08:11:50;15.96;72.87
66019;HTU21D;52787;51.084;5.816;2023-04-23T08:14:17;16.06;72.19
66019;HTU21D;52787;51.084;5.816;2023-04-23T08:16:43;16.18;71.34
66019;HTU21D;52787;51.084;5.816;2023-04-23T08:19:09;16.26;71.43
66019;HTU21D;52787;51.084;5.816;2023-04-23T08:21:36;16.34;70.94
66019;HTU21D;52787;51.084;5.816;2023-04-23T08:24:02;16.42;70.13
66019;HTU21D;52787;51.084;5.816;2023-04-23T08:26:29;16.41;69.78
66019;HTU21D;52787;51.084;5.816;2023-04-23T08:28:55;16.46;70.59
66019;HTU21D;52787;51.084;5.816;2023-04-23T08:31:21;16.57;69.07
66019;HTU21D;52787;51.084;5.816;2023-04-23T08:33:47;16.66;68.30
66019;HTU21D;52787;51.084;5.816;2023-04-23T08:36:13;16.79;68.84
66019;HTU21D;52787;51.084;5.816;2023-04-23T08:38:40;16.94;67.51
66019;HTU21D;52787;51.084;5.816;2023-04-23T08:41:09;17.09;67.36
66019;HTU21D;52787;51.084;5.816;2023-04-23T08:46:30;17.33;64.59
66019;HTU21D;52787;51.084;5.816;2023-04-23T08:48:59;17.37;64.19
66019;HTU21D;52787;51.084;5.816;2023-04-23T08:51:29;17.47;64.76
66019;HTU21D;52787;51.084;5.816;2023-04-23T08:53:57;17.60;64.85
66019;HTU21D;52787;51.084;5.816;2023-04-23T08:56:24;17.68;62.43
66019;HTU21D;52787;51.084;5.816;2023-04-23T08:58:52;17.64;62.85
66019;HTU21D;52787;51.084;5.816;2023-04-23T09:01:18;17.64;62.63
66019;HTU21D;52787;51.084;5.816;2023-04-23T09:03:45;17.64;61.12
66019;HTU21D;52787;51.084;5.816;2023-04-23T09:06:11;17.72;61.16
66019;HTU21D;52787;51.084;5.816;2023-04-23T09:08:37;17.78;61.14
66019;HTU21D;52787;51.084;5.816;2023-04-23T09:11:03;17.90;61.15
66019;HTU21D;52787;51.084;5.816;2023-04-23T09:13:32;18.00;59.12
66019;HTU21D;52787;51.084;5.816;2023-04-23T09:15:58;18.11;58.03
66019;HTU21D;52787;51.084;5.816;2023-04-23T09:18:24;18.23;58.33
66019;HTU21D;52787;51.084;5.816;2023-04-23T09:20:49;18.33;58.64
66019;HTU21D;52787;51.084;5.816;2023-04-23T09:23:15;18.47;58.52
66019;HTU21D;52787;51.084;5.816;2023-04-23T09:25:42;18.61;57.52
66019;HTU21D;52787;51.084;5.816;2023-04-23T09:28:08;18.80;58.29
66019;HTU21D;52787;51.084;5.816;2023-04-23T09:30:45;18.96;57.08
66019;HTU21D;52787;51.084;5.816;2023-04-23T09:33:15;19.01;55.94
66019;HTU21D;52787;51.084;5.816;2023-04-23T09:35:41;18.98;56.00
66019;HTU21D;52787;51.084;5.816;2023-04-23T09:38:08;18.96;56.18
66019;HTU21D;52787;51.084;5.816;2023-04-23T09:40:35;18.97;56.11
66019;HTU21D;52787;51.084;5.816;2023-04-23T09:43:03;19.00;56.74
66019;HTU21D;52787;51.084;5.816;2023-04-23T09:45:31;18.91;56.69
66019;HTU21D;52787;51.084;5.816;2023-04-23T09:47:58;18.88;56.77
66019;HTU21D;52787;51.084;5.816;2023-04-23T09:50:35;18.95;56.00
66019;HTU21D;52787;51.084;5.816;2023-04-23T09:53:04;18.85;56.80
66019;HTU21D;52787;51.084;5.816;2023-04-23T09:55:38;18.91;56.37
66019;HTU21D;52787;51.084;5.816;2023-04-23T09:58:11;18.97;56.59
66019;HTU21D;52787;51.084;5.816;2023-04-23T10:00:40;18.97;55.23
66019;HTU21D;52787;51.084;5.816;2023-04-23T10:03:07;19.00;55.23
66019;HTU21D;52787;51.084;5.816;2023-04-23T10:05:41;19.23;54.88
66019;HTU21D;52787;51.084;5.816;2023-04-23T10:08:08;19.47;53.50
66019;HTU21D;52787;51.084;5.816;2023-04-23T10:10:34;19.69;52.74
66019;HTU21D;52787;51.084;5.816;2023-04-23T10:13:00;19.77;52.27
66019;HTU21D;52787;51.084;5.816;2023-04-23T10:15:28;19.79;52.00
66019;HTU21D;52787;51.084;5.816;2023-04-23T10:17:55;19.92;53.07
66019;HTU21D;52787;51.084;5.816;2023-04-23T10:20:24;20.03;51.95
66019;HTU21D;52787;51.084;5.816;2023-04-23T10:22:52;19.98;51.56
66019;HTU21D;52787;51.084;5.816;2023-04-23T10:25:23;19.95;52.27
66019;HTU21D;52787;51.084;5.816;2023-04-23T10:27:52;19.94;52.46
66019;HTU21D;52787;51.084;5.816;2023-04-23T10:30:21;19.97;51.68
66019;HTU21D;52787;51.084;5.816;2023-04-23T10:32:48;19.87;51.75
66019;HTU21D;52787;51.084;5.816;2023-04-23T10:35:14;19.73;52.17
66019;HTU21D;52787;51.084;5.816;2023-04-23T10:37:41;19.72;52.67
66019;HTU21D;52787;51.084;5.816;2023-04-23T10:40:15;19.85;53.33
66019;HTU21D;52787;51.084;5.816;2023-04-23T10:42:45;19.96;52.30
66019;HTU21D;52787;51.084;5.816;2023-04-23T10:45:16;19.92;52.16
66019;HTU21D;52787;51.084;5.816;2023-04-23T10:47:44;19.92;52.49
66019;HTU21D;52787;51.084;5.816;2023-04-23T10:50:37;20.01;52.04
66019;HTU21D;52787;51.084;5.816;2023-04-23T10:53:02;20.16;52.40
66019;HTU21D;52787;51.084;5.816;2023-04-23T10:55:30;20.22;51.16
66019;HTU21D;52787;51.084;5.816;2023-04-23T10:57:57;20.28;51.18
66019;HTU21D;52787;51.084;5.816;2023-04-23T11:06:04;20.25;47.86
66019;HTU21D;52787;51.084;5.816;2023-04-23T11:08:34;20.31;48.83
66019;HTU21D;52787;51.084;5.816;2023-04-23T11:11:05;20.47;48.55
66019;HTU21D;52787;51.084;5.816;2023-04-23T11:13:31;20.48;48.47
66019;HTU21D;52787;51.084;5.816;2023-04-23T11:16:19;20.56;48.92
66019;HTU21D;52787;51.084;5.816;2023-04-23T11:19:02;20.65;47.99
66019;HTU21D;52787;51.084;5.816;2023-04-23T11:21:58;20.73;47.47
66019;HTU21D;52787;51.084;5.816;2023-04-23T11:24:43;20.75;47.18
66019;HTU21D;52787;51.084;5.816;2023-04-23T11:27:15;20.88;47.18
66019;HTU21D;52787;51.084;5.816;2023-04-23T11:29:45;21.06;46.22
66019;HTU21D;52787;51.084;5.816;2023-04-23T11:32:12;21.28;45.67
66019;HTU21D;52787;51.084;5.816;2023-04-23T11:34:41;21.40;45.18
66019;HTU21D;52787;51.084;5.816;2023-04-23T11:37:10;21.58;45.03
66019;HTU21D;52787;51.084;5.816;2023-04-23T11:39:37;21.90;44.00
66019;HTU21D;52787;51.084;5.816;2023-04-23T11:42:03;22.06;44.06
66019;HTU21D;52787;51.084;5.816;2023-04-23T11:44:29;22.12;43.88
66019;HTU21D;52787;51.084;5.816;2023-04-23T11:46:59;22.24;41.62
66019;HTU21D;52787;51.084;5.816;2023-04-23T11:49:26;22.34;41.46
66019;HTU21D;52787;51.084;5.816;2023-04-23T11:51:52;22.42;40.93
66019;HTU21D;52787;51.084;5.816;2023-04-23T11:54:18;22.41;40.84
66019;HTU21D;52787;51.084;5.816;2023-04-23T11:56:53;22.37;40.69
66019;HTU21D;52787;51.084;5.816;2023-04-23T11:59:19;22.44;39.52
66019;HTU21D;52787;51.084;5.816;2023-04-23T12:01:50;22.46;40.01
66019;HTU21D;52787;51.084;5.816;2023-04-23T12:06:54;22.49;40.72
66019;HTU21D;52787;51.084;5.816;2023-04-23T12:09:24;22.54;40.79
66019;HTU21D;52787;51.084;5.816;2023-04-23T12:11:52;22.86;40.73
66019;HTU21D;52787;51.084;5.816;2023-04-23T12:14:26;23.67;40.33
66019;HTU21D;52787;51.084;5.816;2023-04-23T12:16:54;24.21;37.03
66019;HTU21D;52787;51.084;5.816;2023-04-23T12:22:02;23.95;35.77
66019;HTU21D;52787;51.084;5.816;2023-04-23T12:24:44;23.64;35.76
66019;HTU21D;52787;51.084;5.816;2023-04-23T12:27:15;23.37;36.35
66019;HTU21D;52787;51.084;5.816;2023-04-23T12:29:44;23.10;37.29
66019;HTU21D;52787;51.084;5.816;2023-04-23T12:32:14;22.68;38.53
66019;HTU21D;52787;51.084;5.816;2023-04-23T12:34:54;22.46;39.33
66019;HTU21D;52787;51.084;5.816;2023-04-23T12:37:25;22.73;38.92
66019;HTU21D;52787;51.084;5.816;2023-04-23T12:39:51;22.97;37.88
66019;HTU21D;52787;51.084;5.816;2023-04-23T12:42:18;22.99;38.80
66019;HTU21D;52787;51.084;5.816;2023-04-23T12:44:44;22.94;38.03
66019;HTU21D;52787;51.084;5.816;2023-04-23T12:47:11;22.87;38.64
66019;HTU21D;52787;51.084;5.816;2023-04-23T12:49:40;23.08;38.26
66019;HTU21D;52787;51.084;5.816;2023-04-23T12:52:07;23.24;37.44
66019;HTU21D;52787;51.084;5.816;2023-04-23T12:54:35;23.15;37.59
66019;HTU21D;52787;51.084;5.816;2023-04-23T12:57:04;22.88;37.81
66019;HTU21D;52787;51.084;5.816;2023-04-23T12:59:32;22.51;37.41
66019;HTU21D;52787;51.084;5.816;2023-04-23T13:01:59;22.12;38.33
66019;HTU21D;52787;51.084;5.816;2023-04-23T13:04:29;21.84;39.27
66019;HTU21D;52787;51.084;5.816;2023-04-23T13:06:55;21.64;39.46
66019;HTU21D;52787;51.084;5.816;2023-04-23T13:09:21;21.70;40.76
66019;HTU21D;52787;51.084;5.816;2023-04-23T13:11:49;21.90;40.62
66019;HTU21D;52787;51.084;5.816;2023-04-23T13:14:16;21.93;39.32
66019;HTU21D;52787;51.084;5.816;2023-04-23T13:16:42;21.69;38.75
66019;HTU21D;52787;51.084;5.816;2023-04-23T13:19:08;21.36;39.78
66019;HTU21D;52787;51.084;5.816;2023-04-23T13:21:34;21.08;40.45
66019;HTU21D;52787;51.084;5.816;2023-04-23T13:24:00;20.74;41.19
66019;HTU21D;52787;51.084;5.816;2023-04-23T13:26:26;20.41;41.71
66019;HTU21D;52787;51.084;5.816;2023-04-23T13:28:57;20.04;43.54
66019;HTU21D;52787;51.084;5.816;2023-04-23T13:31:23;19.73;45.12
66019;HTU21D;52787;51.084;5.816;2023-04-23T13:33:49;19.52;47.61
66019;HTU21D;52787;51.084;5.816;2023-04-23T13:36:14;19.22;49.75
66019;HTU21D;52787;51.084;5.816;2023-04-23T13:38:40;18.87;52.46
66019;HTU21D;52787;51.084;5.816;2023-04-23T13:41:06;18.62;55.05
66019;HTU21D;52787;51.084;5.816;2023-04-23T13:43:32;18.35;56.95
66019;HTU21D;52787;51.084;5.816;2023-04-23T13:45:58;18.13;57.70
66019;HTU21D;52787;51.084;5.816;2023-04-23T13:48:25;17.92;59.48
66019;HTU21D;52787;51.084;5.816;2023-04-23T13:50:56;17.72;60.54
66019;HTU21D;52787;51.084;5.816;2023-04-23T13:53:23;17.62;61.37
66019;HTU21D;52787;51.084;5.816;2023-04-23T13:55:49;17.51;62.15
66019;HTU21D;52787;51.084;5.816;2023-04-23T13:58:15;17.41;62.89
66019;HTU21D;52787;51.084;5.816;2023-04-23T14:00:42;17.38;62.62
66019;HTU21D;52787;51.084;5.816;2023-04-23T14:03:08;17.37;63.49
66019;HTU21D;52787;51.084;5.816;2023-04-23T14:05:34;17.38;63.65
66019;HTU21D;52787;51.084;5.816;2023-04-23T14:08:00;17.35;64.60
66019;HTU21D;52787;51.084;5.816;2023-04-23T14:10:26;17.36;64.53
66019;HTU21D;52787;51.084;5.816;2023-04-23T14:12:52;17.25;64.63
66019;HTU21D;52787;51.084;5.816;2023-04-23T14:15:20;17.10;65.40
66019;HTU21D;52787;51.084;5.816;2023-04-23T14:17:46;16.98;66.19
66019;HTU21D;52787;51.084;5.816;2023-04-23T14:20:12;16.94;67.11
66019;HTU21D;52787;51.084;5.816;2023-04-23T14:22:48;16.87;67.17
66019;HTU21D;52787;51.084;5.816;2023-04-23T14:25:24;16.81;67.78
66019;HTU21D;52787;51.084;5.816;2023-04-23T14:27:56;16.71;68.24
66019;HTU21D;52787;51.084;5.816;2023-04-23T14:30:24;16.69;68.86
66019;HTU21D;52787;51.084;5.816;2023-04-23T14:32:52;16.71;69.49
66019;HTU21D;52787;51.084;5.816;2023-04-23T14:35:20;16.74;69.87
66019;HTU21D;52787;51.084;5.816;2023-04-23T14:37:47;16.79;69.65
66019;HTU21D;52787;51.084;5.816;2023-04-23T14:40:13;16.82;69.84
66019;HTU21D;52787;51.084;5.816;2023-04-23T14:42:47;16.85;70.05
66019;HTU21D;52787;51.084;5.816;2023-04-23T14:45:16;16.85;70.32
66019;HTU21D;52787;51.084;5.816;2023-04-23T14:47:44;16.90;70.98
66019;HTU21D;52787;51.084;5.816;2023-04-23T14:50:15;16.93;70.60
66019;HTU21D;52787;51.084;5.816;2023-04-23T14:52:42;16.93;70.61
66019;HTU21D;52787;51.084;5.816;2023-04-23T14:55:11;16.93;71.45
66019;HTU21D;52787;51.084;5.816;2023-04-23T14:57:37;16.98;71.58
66019;HTU21D;52787;51.084;5.816;2023-04-23T15:00:04;17.01;71.59
66019;HTU21D;52787;51.084;5.816;2023-04-23T15:02:33;17.05;71.14
66019;HTU21D;52787;51.084;5.816;2023-04-23T15:05:00;17.01;71.26
66019;HTU21D;52787;51.084;5.816;2023-04-23T15:07:25;17.00;70.99
66019;HTU21D;52787;51.084;5.816;2023-04-23T15:09:51;16.95;71.01
66019;HTU21D;52787;51.084;5.816;2023-04-23T15:15:26;17.11;70.13
66019;HTU21D;52787;51.084;5.816;2023-04-23T15:18:01;17.15;69.82
66019;HTU21D;52787;51.084;5.816;2023-04-23T15:20:27;17.10;69.65
66019;HTU21D;52787;51.084;5.816;2023-04-23T15:22:53;17.17;70.88
66019;HTU21D;52787;51.084;5.816;2023-04-23T15:25:18;17.33;71.00
66019;HTU21D;52787;51.084;5.816;2023-04-23T15:27:44;17.56;70.48
66019;HTU21D;52787;51.084;5.816;2023-04-23T15:30:11;17.76;70.24
66019;HTU21D;52787;51.084;5.816;2023-04-23T15:32:37;17.93;69.97
66019;HTU21D;52787;51.084;5.816;2023-04-23T15:35:03;18.09;69.39